sensor_id;sensor_type;location;lat;lon;timestamp;P1;durP1;ratioP1;P2;durP2;ratioP2
3171;SDS011;1597;51.572;6.992;2023-08-31T00:00:45;9.33;;;5.20;;
3171;SDS011;1597;51.572;6.992;2023-08-31T00:03:11;8.10;;;5.23;;
3171;SDS011;1597;51.572;6.992;2023-08-31T00:05:40;5.20;;;4.73;;
3171;SDS011;1597;51.572;6.992;2023-08-31T00:08:07;9.17;;;4.10;;
3171;SDS011;1597;51.572;6.992;2023-08-31T00:10:33;7.73;;;4.90;;
3171;SDS011;1597;51.572;6.992;2023-08-31T00:13:02;7.10;;;4.50;;
3171;SDS011;1597;51.572;6.992;2023-08-31T00:15:29;7.80;;;4.50;;
3171;SDS011;1597;51.572;6.992;2023-08-31T00:17:58;6.57;;;4.60;;
3171;SDS011;1597;51.572;6.992;2023-08-31T00:20:24;6.20;;;5.07;;
3171;SDS011;1597;51.572;6.992;2023-08-31T00:22:51;4.87;;;4.37;;
3171;SDS011;1597;51.572;6.992;2023-08-31T00:25:17;11.90;;;4.90;;
3171;SDS011;1597;51.572;6.992;2023-08-31T00:27:43;10.93;;;4.87;;
3171;SDS011;1597;51.572;6.992;2023-08-31T00:30:13;8.70;;;5.13;;
3171;SDS011;1597;51.572;6.992;2023-08-31T00:32:39;10.43;;;4.80;;
3171;SDS011;1597;51.572;6.992;2023-08-31T00:35:07;5.50;;;4.53;;
3171;SDS011;1597;51.572;6.992;2023-08-31T00:37:34;8.60;;;5.00;;
3171;SDS011;1597;51.572;6.992;2023-08-31T00:40:00;5.43;;;4.23;;
3171;SDS011;1597;51.572;6.992;2023-08-31T00:42:26;8.80;;;4.10;;
3171;SDS011;1597;51.572;6.992;2023-08-31T00:44:54;10.53;;;4.10;;
3171;SDS011;1597;51.572;6.992;2023-08-31T00:47:20;6.27;;;4.90;;
3171;SDS011;1597;51.572;6.992;2023-08-31T00:49:46;10.93;;;4.70;;
3171;SDS011;1597;51.572;6.992;2023-08-31T00:52:14;5.37;;;4.40;;
3171;SDS011;1597;51.572;6.992;2023-08-31T00:54:40;6.33;;;4.40;;
3171;SDS011;1597;51.572;6.992;2023-08-31T00:57:07;8.00;;;5.83;;
3171;SDS011;1597;51.572;6.992;2023-08-31T00:59:34;6.40;;;4.57;;
3171;SDS011;1597;51.572;6.992;2023-08-31T01:04:51;9.83;;;5.10;;
3171;SDS011;1597;51.572;6.992;2023-08-31T01:07:57;8.50;;;4.63;;
3171;SDS011;1597;51.572;6.992;2023-08-31T01:13:16;5.60;;;3.83;;
3171;SDS011;1597;51.572;6.992;2023-08-31T01:15:51;4.90;;;4.23;;
3171;SDS011;1597;51.572;6.992;2023-08-31T01:18:21;5.40;;;4.90;;
3171;SDS011;1597;51.572;6.992;2023-08-31T01:23:46;8.37;;;4.17;;
3171;SDS011;1597;51.572;6.992;2023-08-31T01:26:23;5.10;;;4.70;;
3171;SDS011;1597;51.572;6.992;2023-08-31T01:28:50;6.73;;;4.47;;
3171;SDS011;1597;51.572;6.992;2023-08-31T01:31:17;6.67;;;5.50;;
3171;SDS011;1597;51.572;6.992;2023-08-31T01:33:43;7.30;;;4.53;;
3171;SDS011;1597;51.572;6.992;2023-08-31T01:36:14;6.10;;;4.40;;
3171;SDS011;1597;51.572;6.992;2023-08-31T01:38:58;6.97;;;4.80;;
3171;SDS011;1597;51.572;6.992;2023-08-31T01:41:33;6.10;;;4.43;;
3171;SDS011;1597;51.572;6.992;2023-08-31T01:44:00;6.87;;;5.17;;
3171;SDS011;1597;51.572;6.992;2023-08-31T01:46:27;7.70;;;5.27;;
3171;SDS011;1597;51.572;6.992;2023-08-31T01:48:54;5.10;;;4.60;;
3171;SDS011;1597;51.572;6.992;2023-08-31T01:51:20;8.10;;;5.00;;
3171;SDS011;1597;51.572;6.992;2023-08-31T01:53:45;6.60;;;4.53;;
3171;SDS011;1597;51.572;6.992;2023-08-31T01:56:11;7.07;;;5.70;;
3171;SDS011;1597;51.572;6.992;2023-08-31T01:58:38;6.60;;;5.90;;
3171;SDS011;1597;51.572;6.992;2023-08-31T02:01:04;6.97;;;4.40;;
3171;SDS011;1597;51.572;6.992;2023-08-31T02:03:30;7.30;;;5.70;;
3171;SDS011;1597;51.572;6.992;2023-08-31T02:05:56;4.40;;;4.00;;
3171;SDS011;1597;51.572;6.992;2023-08-31T02:08:22;6.07;;;5.47;;
3171;SDS011;1597;51.572;6.992;2023-08-31T02:10:48;10.30;;;6.33;;
3171;SDS011;1597;51.572;6.992;2023-08-31T02:13:14;6.43;;;5.40;;
3171;SDS011;1597;51.572;6.992;2023-08-31T02:15:41;6.43;;;5.20;;
3171;SDS011;1597;51.572;6.992;2023-08-31T02:18:07;5.63;;;4.67;;
3171;SDS011;1597;51.572;6.992;2023-08-31T02:20:33;5.43;;;4.93;;
3171;SDS011;1597;51.572;6.992;2023-08-31T02:22:59;9.27;;;5.70;;
3171;SDS011;1597;51.572;6.992;2023-08-31T02:25:25;8.40;;;5.73;;
3171;SDS011;1597;51.572;6.992;2023-08-31T02:27:53;9.17;;;5.90;;
3171;SDS011;1597;51.572;6.992;2023-08-31T02:30:19;8.13;;;5.80;;
3171;SDS011;1597;51.572;6.992;2023-08-31T02:32:47;8.17;;;5.10;;
3171;SDS011;1597;51.572;6.992;2023-08-31T02:35:13;10.20;;;5.47;;
3171;SDS011;1597;51.572;6.992;2023-08-31T02:37:38;9.60;;;5.77;;
3171;SDS011;1597;51.572;6.992;2023-08-31T02:40:04;6.00;;;5.40;;
3171;SDS011;1597;51.572;6.992;2023-08-31T02:42:31;8.60;;;5.83;;
3171;SDS011;1597;51.572;6.992;2023-08-31T02:44:57;9.17;;;7.00;;
3171;SDS011;1597;51.572;6.992;2023-08-31T02:47:23;7.23;;;5.83;;
3171;SDS011;1597;51.572;6.992;2023-08-31T02:49:49;10.83;;;6.47;;
3171;SDS011;1597;51.572;6.992;2023-08-31T02:52:14;6.80;;;5.83;;
3171;SDS011;1597;51.572;6.992;2023-08-31T02:54:40;8.17;;;5.10;;
3171;SDS011;1597;51.572;6.992;2023-08-31T02:57:06;8.23;;;5.93;;
3171;SDS011;1597;51.572;6.992;2023-08-31T02:59:32;7.17;;;6.30;;
3171;SDS011;1597;51.572;6.992;2023-08-31T03:02:01;7.83;;;7.00;;
3171;SDS011;1597;51.572;6.992;2023-08-31T03:04:29;8.53;;;6.60;;
3171;SDS011;1597;51.572;6.992;2023-08-31T03:06:54;9.33;;;6.97;;
3171;SDS011;1597;51.572;6.992;2023-08-31T03:09:20;8.27;;;6.97;;
3171;SDS011;1597;51.572;6.992;2023-08-31T03:11:46;9.30;;;7.40;;
3171;SDS011;1597;51.572;6.992;2023-08-31T03:14:12;9.77;;;7.90;;
3171;SDS011;1597;51.572;6.992;2023-08-31T03:16:38;9.30;;;7.60;;
3171;SDS011;1597;51.572;6.992;2023-08-31T03:19:04;7.83;;;7.00;;
3171;SDS011;1597;51.572;6.992;2023-08-31T03:21:30;10.40;;;7.53;;
3171;SDS011;1597;51.572;6.992;2023-08-31T03:23:56;10.30;;;7.50;;
3171;SDS011;1597;51.572;6.992;2023-08-31T03:26:22;12.17;;;8.20;;
3171;SDS011;1597;51.572;6.992;2023-08-31T03:28:48;8.30;;;7.50;;
3171;SDS011;1597;51.572;6.992;2023-08-31T03:31:13;8.80;;;7.30;;
3171;SDS011;1597;51.572;6.992;2023-08-31T03:33:39;8.37;;;7.37;;
3171;SDS011;1597;51.572;6.992;2023-08-31T03:36:05;11.80;;;8.10;;
3171;SDS011;1597;51.572;6.992;2023-08-31T03:38:31;9.40;;;8.47;;
3171;SDS011;1597;51.572;6.992;2023-08-31T03:40:57;10.37;;;8.10;;
3171;SDS011;1597;51.572;6.992;2023-08-31T03:43:23;10.03;;;7.73;;
3171;SDS011;1597;51.572;6.992;2023-08-31T03:45:49;14.23;;;9.40;;
3171;SDS011;1597;51.572;6.992;2023-08-31T03:48:22;14.70;;;9.50;;
3171;SDS011;1597;51.572;6.992;2023-08-31T03:50:55;12.30;;;9.47;;
3171;SDS011;1597;51.572;6.992;2023-08-31T03:53:21;12.23;;;9.37;;
3171;SDS011;1597;51.572;6.992;2023-08-31T03:55:47;10.23;;;9.13;;
3171;SDS011;1597;51.572;6.992;2023-08-31T03:58:13;11.17;;;9.00;;
3171;SDS011;1597;51.572;6.992;2023-08-31T04:00:38;11.57;;;9.83;;
3171;SDS011;1597;51.572;6.992;2023-08-31T04:03:05;13.13;;;9.80;;
3171;SDS011;1597;51.572;6.992;2023-08-31T04:05:34;10.40;;;9.30;;
3171;SDS011;1597;51.572;6.992;2023-08-31T04:08:00;12.50;;;10.60;;
3171;SDS011;1597;51.572;6.992;2023-08-31T04:10:30;10.57;;;8.30;;
3171;SDS011;1597;51.572;6.992;2023-08-31T04:12:57;11.00;;;8.80;;
3171;SDS011;1597;51.572;6.992;2023-08-31T04:15:23;9.60;;;8.17;;
3171;SDS011;1597;51.572;6.992;2023-08-31T04:17:48;11.33;;;9.93;;
3171;SDS011;1597;51.572;6.992;2023-08-31T04:20:17;10.83;;;8.47;;
3171;SDS011;1597;51.572;6.992;2023-08-31T04:22:43;12.57;;;9.97;;
3171;SDS011;1597;51.572;6.992;2023-08-31T04:25:08;11.77;;;10.50;;
3171;SDS011;1597;51.572;6.992;2023-08-31T04:27:34;11.73;;;10.57;;
3171;SDS011;1597;51.572;6.992;2023-08-31T04:30:01;12.73;;;11.10;;
3171;SDS011;1597;51.572;6.992;2023-08-31T04:32:27;14.27;;;11.83;;
3171;SDS011;1597;51.572;6.992;2023-08-31T04:34:53;14.00;;;11.80;;
3171;SDS011;1597;51.572;6.992;2023-08-31T04:37:19;14.43;;;12.80;;
3171;SDS011;1597;51.572;6.992;2023-08-31T04:39:47;13.63;;;11.70;;
3171;SDS011;1597;51.572;6.992;2023-08-31T04:42:13;15.47;;;12.67;;
3171;SDS011;1597;51.572;6.992;2023-08-31T04:44:39;15.93;;;12.30;;
3171;SDS011;1597;51.572;6.992;2023-08-31T04:47:04;18.10;;;13.73;;
3171;SDS011;1597;51.572;6.992;2023-08-31T04:49:30;17.47;;;13.17;;
3171;SDS011;1597;51.572;6.992;2023-08-31T04:51:56;13.93;;;12.40;;
3171;SDS011;1597;51.572;6.992;2023-08-31T04:54:22;18.60;;;13.73;;
3171;SDS011;1597;51.572;6.992;2023-08-31T04:56:47;15.23;;;10.73;;
3171;SDS011;1597;51.572;6.992;2023-08-31T04:59:13;19.30;;;14.33;;
3171;SDS011;1597;51.572;6.992;2023-08-31T05:01:39;19.50;;;13.67;;
3171;SDS011;1597;51.572;6.992;2023-08-31T05:04:05;16.37;;;13.60;;
3171;SDS011;1597;51.572;6.992;2023-08-31T05:06:31;18.40;;;12.40;;
3171;SDS011;1597;51.572;6.992;2023-08-31T05:08:57;15.57;;;12.13;;
3171;SDS011;1597;51.572;6.992;2023-08-31T05:11:23;15.27;;;12.30;;
3171;SDS011;1597;51.572;6.992;2023-08-31T05:13:49;15.50;;;11.53;;
3171;SDS011;1597;51.572;6.992;2023-08-31T05:16:14;12.33;;;10.90;;
3171;SDS011;1597;51.572;6.992;2023-08-31T05:18:40;12.93;;;10.70;;
3171;SDS011;1597;51.572;6.992;2023-08-31T05:21:06;15.70;;;12.40;;
3171;SDS011;1597;51.572;6.992;2023-08-31T05:23:32;10.73;;;9.70;;
3171;SDS011;1597;51.572;6.992;2023-08-31T05:25:59;14.50;;;10.30;;
3171;SDS011;1597;51.572;6.992;2023-08-31T05:28:26;11.80;;;9.20;;
3171;SDS011;1597;51.572;6.992;2023-08-31T05:30:53;12.13;;;9.53;;
3171;SDS011;1597;51.572;6.992;2023-08-31T05:33:21;10.10;;;8.47;;
3171;SDS011;1597;51.572;6.992;2023-08-31T05:35:52;11.27;;;9.40;;
3171;SDS011;1597;51.572;6.992;2023-08-31T05:38:18;16.10;;;10.30;;
3171;SDS011;1597;51.572;6.992;2023-08-31T05:40:44;13.17;;;9.70;;
3171;SDS011;1597;51.572;6.992;2023-08-31T05:43:14;19.23;;;11.00;;
3171;SDS011;1597;51.572;6.992;2023-08-31T05:45:41;14.17;;;11.60;;
3171;SDS011;1597;51.572;6.992;2023-08-31T05:48:07;16.60;;;10.33;;
3171;SDS011;1597;51.572;6.992;2023-08-31T05:50:33;14.37;;;11.13;;
3171;SDS011;1597;51.572;6.992;2023-08-31T05:53:00;14.13;;;11.27;;
3171;SDS011;1597;51.572;6.992;2023-08-31T05:55:26;16.57;;;11.70;;
3171;SDS011;1597;51.572;6.992;2023-08-31T05:57:51;20.23;;;13.87;;
3171;SDS011;1597;51.572;6.992;2023-08-31T06:00:17;20.40;;;14.70;;
3171;SDS011;1597;51.572;6.992;2023-08-31T06:02:44;20.23;;;14.70;;
3171;SDS011;1597;51.572;6.992;2023-08-31T06:05:10;24.17;;;15.80;;
3171;SDS011;1597;51.572;6.992;2023-08-31T06:07:41;21.03;;;17.40;;
3171;SDS011;1597;51.572;6.992;2023-08-31T06:10:08;26.93;;;15.77;;
3171;SDS011;1597;51.572;6.992;2023-08-31T06:12:34;25.27;;;16.33;;
3171;SDS011;1597;51.572;6.992;2023-08-31T06:15:01;20.93;;;16.10;;
3171;SDS011;1597;51.572;6.992;2023-08-31T06:17:28;22.70;;;16.47;;
3171;SDS011;1597;51.572;6.992;2023-08-31T06:19:54;21.60;;;16.87;;
3171;SDS011;1597;51.572;6.992;2023-08-31T06:22:20;18.40;;;15.00;;
3171;SDS011;1597;51.572;6.992;2023-08-31T06:24:47;14.10;;;12.10;;
3171;SDS011;1597;51.572;6.992;2023-08-31T06:27:13;15.40;;;12.83;;
3171;SDS011;1597;51.572;6.992;2023-08-31T06:29:41;17.30;;;14.33;;
3171;SDS011;1597;51.572;6.992;2023-08-31T06:32:06;16.10;;;13.13;;
3171;SDS011;1597;51.572;6.992;2023-08-31T06:34:32;17.47;;;12.60;;
3171;SDS011;1597;51.572;6.992;2023-08-31T06:36:58;16.37;;;13.00;;
3171;SDS011;1597;51.572;6.992;2023-08-31T06:39:24;16.33;;;13.67;;
3171;SDS011;1597;51.572;6.992;2023-08-31T06:41:50;16.23;;;12.30;;
3171;SDS011;1597;51.572;6.992;2023-08-31T06:44:15;12.00;;;10.50;;
3171;SDS011;1597;51.572;6.992;2023-08-31T06:46:42;15.47;;;11.10;;
3171;SDS011;1597;51.572;6.992;2023-08-31T06:49:07;10.53;;;9.53;;
3171;SDS011;1597;51.572;6.992;2023-08-31T06:51:34;11.20;;;9.97;;
3171;SDS011;1597;51.572;6.992;2023-08-31T06:54:01;11.07;;;9.37;;
3171;SDS011;1597;51.572;6.992;2023-08-31T06:56:31;9.97;;;8.77;;
3171;SDS011;1597;51.572;6.992;2023-08-31T06:58:58;11.23;;;8.90;;
3171;SDS011;1597;51.572;6.992;2023-08-31T07:01:24;12.17;;;8.80;;
3171;SDS011;1597;51.572;6.992;2023-08-31T07:03:51;9.37;;;8.43;;
3171;SDS011;1597;51.572;6.992;2023-08-31T07:06:17;9.33;;;8.20;;
3171;SDS011;1597;51.572;6.992;2023-08-31T07:08:43;8.87;;;7.53;;
3171;SDS011;1597;51.572;6.992;2023-08-31T07:11:10;10.97;;;8.07;;
3171;SDS011;1597;51.572;6.992;2023-08-31T07:13:36;10.90;;;7.50;;
3171;SDS011;1597;51.572;6.992;2023-08-31T07:16:02;10.57;;;6.97;;
3171;SDS011;1597;51.572;6.992;2023-08-31T07:18:29;10.20;;;7.37;;
3171;SDS011;1597;51.572;6.992;2023-08-31T07:20:58;10.27;;;7.87;;
3171;SDS011;1597;51.572;6.992;2023-08-31T07:23:24;9.80;;;7.50;;
3171;SDS011;1597;51.572;6.992;2023-08-31T07:25:49;9.47;;;7.20;;
3171;SDS011;1597;51.572;6.992;2023-08-31T07:28:15;11.07;;;8.03;;
3171;SDS011;1597;51.572;6.992;2023-08-31T07:30:41;10.20;;;6.10;;
3171;SDS011;1597;51.572;6.992;2023-08-31T07:33:07;10.50;;;7.60;;
3171;SDS011;1597;51.572;6.992;2023-08-31T07:35:33;7.27;;;6.20;;
3171;SDS011;1597;51.572;6.992;2023-08-31T07:37:59;6.53;;;5.93;;
3171;SDS011;1597;51.572;6.992;2023-08-31T07:40:24;9.90;;;7.17;;
3171;SDS011;1597;51.572;6.992;2023-08-31T07:42:50;10.40;;;6.50;;
3171;SDS011;1597;51.572;6.992;2023-08-31T07:45:16;44.10;;;34.17;;
3171;SDS011;1597;51.572;6.992;2023-08-31T07:47:42;29.07;;;18.80;;
3171;SDS011;1597;51.572;6.992;2023-08-31T07:50:09;10.73;;;7.37;;
3171;SDS011;1597;51.572;6.992;2023-08-31T07:52:35;9.07;;;6.23;;
3171;SDS011;1597;51.572;6.992;2023-08-31T07:55:03;7.60;;;5.30;;
3171;SDS011;1597;51.572;6.992;2023-08-31T07:57:29;6.13;;;4.83;;
3171;SDS011;1597;51.572;6.992;2023-08-31T07:59:55;7.03;;;5.80;;
3171;SDS011;1597;51.572;6.992;2023-08-31T08:02:20;10.47;;;5.90;;
3171;SDS011;1597;51.572;6.992;2023-08-31T08:04:46;6.13;;;5.17;;
3171;SDS011;1597;51.572;6.992;2023-08-31T08:07:12;9.40;;;5.70;;
3171;SDS011;1597;51.572;6.992;2023-08-31T08:09:38;9.37;;;6.83;;
3171;SDS011;1597;51.572;6.992;2023-08-31T08:12:04;6.33;;;4.97;;
3171;SDS011;1597;51.572;6.992;2023-08-31T08:14:30;5.60;;;4.87;;
3171;SDS011;1597;51.572;6.992;2023-08-31T08:16:57;8.80;;;5.80;;
3171;SDS011;1597;51.572;6.992;2023-08-31T08:19:23;6.30;;;5.10;;
3171;SDS011;1597;51.572;6.992;2023-08-31T08:21:50;12.63;;;6.77;;
3171;SDS011;1597;51.572;6.992;2023-08-31T08:24:16;4.70;;;4.20;;
3171;SDS011;1597;51.572;6.992;2023-08-31T08:26:42;5.20;;;4.70;;
3171;SDS011;1597;51.572;6.992;2023-08-31T08:29:08;5.93;;;4.10;;
3171;SDS011;1597;51.572;6.992;2023-08-31T08:31:34;7.37;;;3.60;;
3171;SDS011;1597;51.572;6.992;2023-08-31T08:34:00;4.70;;;4.20;;
3171;SDS011;1597;51.572;6.992;2023-08-31T08:36:26;4.73;;;4.10;;
3171;SDS011;1597;51.572;6.992;2023-08-31T08:38:52;4.80;;;4.23;;
3171;SDS011;1597;51.572;6.992;2023-08-31T08:41:19;4.27;;;3.80;;
3171;SDS011;1597;51.572;6.992;2023-08-31T08:43:50;6.57;;;3.97;;
3171;SDS011;1597;51.572;6.992;2023-08-31T08:46:17;4.37;;;3.97;;
3171;SDS011;1597;51.572;6.992;2023-08-31T08:48:44;3.80;;;3.50;;
3171;SDS011;1597;51.572;6.992;2023-08-31T08:51:11;6.80;;;3.23;;
3171;SDS011;1597;51.572;6.992;2023-08-31T08:53:40;4.77;;;3.27;;
3171;SDS011;1597;51.572;6.992;2023-08-31T08:56:08;7.90;;;3.70;;
3171;SDS011;1597;51.572;6.992;2023-08-31T08:58:34;13.20;;;3.30;;
3171;SDS011;1597;51.572;6.992;2023-08-31T09:01:00;6.43;;;3.83;;
3171;SDS011;1597;51.572;6.992;2023-08-31T09:03:28;5.87;;;4.97;;
3171;SDS011;1597;51.572;6.992;2023-08-31T09:05:53;9.83;;;3.63;;
3171;SDS011;1597;51.572;6.992;2023-08-31T09:08:26;4.90;;;4.40;;
3171;SDS011;1597;51.572;6.992;2023-08-31T09:10:55;8.47;;;4.90;;
3171;SDS011;1597;51.572;6.992;2023-08-31T09:13:25;4.40;;;4.10;;
3171;SDS011;1597;51.572;6.992;2023-08-31T09:15:54;4.60;;;3.23;;
3171;SDS011;1597;51.572;6.992;2023-08-31T09:18:28;8.43;;;3.80;;
3171;SDS011;1597;51.572;6.992;2023-08-31T09:20:59;3.03;;;2.73;;
3171;SDS011;1597;51.572;6.992;2023-08-31T09:23:26;6.57;;;4.50;;
3171;SDS011;1597;51.572;6.992;2023-08-31T09:25:53;5.03;;;3.90;;
3171;SDS011;1597;51.572;6.992;2023-08-31T09:28:21;5.20;;;3.87;;
3171;SDS011;1597;51.572;6.992;2023-08-31T09:30:52;3.57;;;3.27;;
3171;SDS011;1597;51.572;6.992;2023-08-31T09:33:29;3.23;;;2.60;;
3171;SDS011;1597;51.572;6.992;2023-08-31T09:35:57;5.60;;;3.00;;
3171;SDS011;1597;51.572;6.992;2023-08-31T09:38:26;5.20;;;3.90;;
3171;SDS011;1597;51.572;6.992;2023-08-31T09:40:58;4.57;;;3.00;;
3171;SDS011;1597;51.572;6.992;2023-08-31T09:43:32;2.73;;;2.53;;
3171;SDS011;1597;51.572;6.992;2023-08-31T09:45:58;6.87;;;3.30;;
3171;SDS011;1597;51.572;6.992;2023-08-31T09:48:25;3.00;;;2.70;;
3171;SDS011;1597;51.572;6.992;2023-08-31T09:50:52;8.27;;;4.60;;
3171;SDS011;1597;51.572;6.992;2023-08-31T09:53:20;5.40;;;2.77;;
3171;SDS011;1597;51.572;6.992;2023-08-31T09:55:46;7.30;;;4.40;;
3171;SDS011;1597;51.572;6.992;2023-08-31T09:58:16;7.40;;;3.20;;
3171;SDS011;1597;51.572;6.992;2023-08-31T10:00:51;5.30;;;3.77;;
3171;SDS011;1597;51.572;6.992;2023-08-31T10:03:17;3.00;;;2.70;;
3171;SDS011;1597;51.572;6.992;2023-08-31T10:05:46;5.50;;;3.37;;
3171;SDS011;1597;51.572;6.992;2023-08-31T10:08:15;4.17;;;3.77;;
3171;SDS011;1597;51.572;6.992;2023-08-31T10:10:42;4.50;;;2.90;;
3171;SDS011;1597;51.572;6.992;2023-08-31T10:13:09;3.33;;;3.00;;
3171;SDS011;1597;51.572;6.992;2023-08-31T10:15:36;7.27;;;3.40;;
3171;SDS011;1597;51.572;6.992;2023-08-31T10:18:03;7.27;;;2.93;;
3171;SDS011;1597;51.572;6.992;2023-08-31T10:20:32;4.53;;;3.03;;
3171;SDS011;1597;51.572;6.992;2023-08-31T10:23:02;3.47;;;2.50;;
3171;SDS011;1597;51.572;6.992;2023-08-31T10:26:02;4.23;;;3.00;;
3171;SDS011;1597;51.572;6.992;2023-08-31T10:28:22;6.53;;;3.60;;
3171;SDS011;1597;51.572;6.992;2023-08-31T10:33:32;6.87;;;4.43;;
3171;SDS011;1597;51.572;6.992;2023-08-31T10:36:45;4.00;;;3.13;;
3171;SDS011;1597;51.572;6.992;2023-08-31T10:39:15;4.43;;;3.83;;
3171;SDS011;1597;51.572;6.992;2023-08-31T10:41:54;6.40;;;2.13;;
3171;SDS011;1597;51.572;6.992;2023-08-31T10:44:24;4.50;;;2.50;;
3171;SDS011;1597;51.572;6.992;2023-08-31T10:46:52;2.80;;;2.60;;
3171;SDS011;1597;51.572;6.992;2023-08-31T10:49:20;2.57;;;1.83;;
3171;SDS011;1597;51.572;6.992;2023-08-31T10:51:57;3.20;;;2.10;;
3171;SDS011;1597;51.572;6.992;2023-08-31T10:54:45;2.77;;;2.57;;
3171;SDS011;1597;51.572;6.992;2023-08-31T10:57:12;5.50;;;2.20;;
3171;SDS011;1597;51.572;6.992;2023-08-31T10:59:46;1.90;;;1.80;;
3171;SDS011;1597;51.572;6.992;2023-08-31T11:02:30;4.50;;;2.80;;
3171;SDS011;1597;51.572;6.992;2023-08-31T11:05:15;4.50;;;3.30;;
3171;SDS011;1597;51.572;6.992;2023-08-31T11:07:45;2.80;;;2.60;;
3171;SDS011;1597;51.572;6.992;2023-08-31T11:10:21;4.40;;;2.90;;
3171;SDS011;1597;51.572;6.992;2023-08-31T11:12:52;6.20;;;3.00;;
3171;SDS011;1597;51.572;6.992;2023-08-31T11:15:21;4.40;;;2.90;;
3171;SDS011;1597;51.572;6.992;2023-08-31T11:17:53;2.77;;;2.57;;
3171;SDS011;1597;51.572;6.992;2023-08-31T11:20:21;4.90;;;2.63;;
3171;SDS011;1597;51.572;6.992;2023-08-31T11:22:52;3.67;;;3.37;;
3171;SDS011;1597;51.572;6.992;2023-08-31T11:25:19;4.40;;;3.07;;
3171;SDS011;1597;51.572;6.992;2023-08-31T11:27:59;4.37;;;3.13;;
3171;SDS011;1597;51.572;6.992;2023-08-31T11:30:31;6.17;;;2.87;;
3171;SDS011;1597;51.572;6.992;2023-08-31T11:33:07;5.00;;;2.83;;
3171;SDS011;1597;51.572;6.992;2023-08-31T11:35:36;3.50;;;2.50;;
3171;SDS011;1597;51.572;6.992;2023-08-31T11:38:11;5.47;;;2.70;;
3171;SDS011;1597;51.572;6.992;2023-08-31T11:40:38;10.53;;;4.27;;
3171;SDS011;1597;51.572;6.992;2023-08-31T11:43:06;5.60;;;2.20;;
3171;SDS011;1597;51.572;6.992;2023-08-31T11:45:33;5.13;;;2.87;;
3171;SDS011;1597;51.572;6.992;2023-08-31T11:48:01;4.73;;;3.00;;
3171;SDS011;1597;51.572;6.992;2023-08-31T11:50:28;4.57;;;2.67;;
3171;SDS011;1597;51.572;6.992;2023-08-31T11:52:54;2.30;;;2.03;;
3171;SDS011;1597;51.572;6.992;2023-08-31T11:55:20;5.60;;;3.10;;
3171;SDS011;1597;51.572;6.992;2023-08-31T11:57:50;5.30;;;2.77;;
3171;SDS011;1597;51.572;6.992;2023-08-31T12:00:17;3.47;;;3.17;;
3171;SDS011;1597;51.572;6.992;2023-08-31T12:02:56;4.40;;;2.70;;
3171;SDS011;1597;51.572;6.992;2023-08-31T12:05:26;2.93;;;2.73;;
3171;SDS011;1597;51.572;6.992;2023-08-31T12:07:53;3.27;;;2.77;;
3171;SDS011;1597;51.572;6.992;2023-08-31T12:10:20;6.27;;;4.60;;
3171;SDS011;1597;51.572;6.992;2023-08-31T12:12:45;3.90;;;3.23;;
3171;SDS011;1597;51.572;6.992;2023-08-31T12:15:12;4.43;;;2.50;;
3171;SDS011;1597;51.572;6.992;2023-08-31T12:17:38;5.20;;;3.20;;
3171;SDS011;1597;51.572;6.992;2023-08-31T12:20:05;4.90;;;2.70;;
3171;SDS011;1597;51.572;6.992;2023-08-31T12:22:32;2.93;;;1.90;;
3171;SDS011;1597;51.572;6.992;2023-08-31T12:24:58;4.00;;;2.07;;
3171;SDS011;1597;51.572;6.992;2023-08-31T12:27:23;3.00;;;2.60;;
3171;SDS011;1597;51.572;6.992;2023-08-31T12:29:49;2.40;;;2.20;;
3171;SDS011;1597;51.572;6.992;2023-08-31T12:32:15;2.27;;;1.50;;
3171;SDS011;1597;51.572;6.992;2023-08-31T12:34:44;4.67;;;2.03;;
3171;SDS011;1597;51.572;6.992;2023-08-31T12:37:10;3.30;;;1.67;;
3171;SDS011;1597;51.572;6.992;2023-08-31T12:39:36;4.20;;;2.43;;
3171;SDS011;1597;51.572;6.992;2023-08-31T12:42:02;3.87;;;2.77;;
3171;SDS011;1597;51.572;6.992;2023-08-31T12:44:29;1.70;;;1.60;;
3171;SDS011;1597;51.572;6.992;2023-08-31T12:46:56;3.00;;;2.00;;
3171;SDS011;1597;51.572;6.992;2023-08-31T12:49:22;2.10;;;1.90;;
3171;SDS011;1597;51.572;6.992;2023-08-31T12:51:48;3.60;;;1.97;;
3171;SDS011;1597;51.572;6.992;2023-08-31T12:54:15;3.80;;;2.00;;
3171;SDS011;1597;51.572;6.992;2023-08-31T12:56:42;1.93;;;1.83;;
3171;SDS011;1597;51.572;6.992;2023-08-31T12:59:08;3.20;;;2.90;;
3171;SDS011;1597;51.572;6.992;2023-08-31T13:01:34;2.93;;;2.50;;
3171;SDS011;1597;51.572;6.992;2023-08-31T13:04:00;4.60;;;3.67;;
3171;SDS011;1597;51.572;6.992;2023-08-31T13:06:27;5.87;;;3.50;;
3171;SDS011;1597;51.572;6.992;2023-08-31T13:08:53;8.90;;;4.87;;
3171;SDS011;1597;51.572;6.992;2023-08-31T13:11:19;6.00;;;3.17;;
3171;SDS011;1597;51.572;6.992;2023-08-31T13:13:48;7.30;;;2.63;;
3171;SDS011;1597;51.572;6.992;2023-08-31T13:16:18;2.60;;;2.40;;
3171;SDS011;1597;51.572;6.992;2023-08-31T13:18:44;4.27;;;2.70;;
3171;SDS011;1597;51.572;6.992;2023-08-31T13:21:10;3.53;;;2.77;;
3171;SDS011;1597;51.572;6.992;2023-08-31T13:23:36;8.03;;;3.03;;
3171;SDS011;1597;51.572;6.992;2023-08-31T13:26:02;4.27;;;3.27;;
3171;SDS011;1597;51.572;6.992;2023-08-31T13:28:28;6.00;;;2.53;;
3171;SDS011;1597;51.572;6.992;2023-08-31T13:30:57;14.90;;;3.00;;
3171;SDS011;1597;51.572;6.992;2023-08-31T13:33:23;4.73;;;3.03;;
3171;SDS011;1597;51.572;6.992;2023-08-31T13:35:49;4.17;;;3.77;;
3171;SDS011;1597;51.572;6.992;2023-08-31T13:38:15;3.30;;;2.20;;
3171;SDS011;1597;51.572;6.992;2023-08-31T13:40:41;3.20;;;2.17;;
3171;SDS011;1597;51.572;6.992;2023-08-31T13:43:06;3.97;;;3.10;;
3171;SDS011;1597;51.572;6.992;2023-08-31T13:45:32;3.10;;;2.77;;
3171;SDS011;1597;51.572;6.992;2023-08-31T13:47:58;5.43;;;2.50;;
3171;SDS011;1597;51.572;6.992;2023-08-31T13:50:25;4.17;;;2.20;;
3171;SDS011;1597;51.572;6.992;2023-08-31T13:52:52;2.70;;;2.50;;
3171;SDS011;1597;51.572;6.992;2023-08-31T13:55:18;3.27;;;2.80;;
3171;SDS011;1597;51.572;6.992;2023-08-31T13:57:44;2.50;;;2.30;;
3171;SDS011;1597;51.572;6.992;2023-08-31T14:00:10;2.90;;;2.63;;
3171;SDS011;1597;51.572;6.992;2023-08-31T14:02:37;3.00;;;2.67;;
3171;SDS011;1597;51.572;6.992;2023-08-31T14:05:03;6.40;;;3.30;;
3171;SDS011;1597;51.572;6.992;2023-08-31T14:07:31;4.60;;;2.50;;
3171;SDS011;1597;51.572;6.992;2023-08-31T14:10:01;3.97;;;3.07;;
3171;SDS011;1597;51.572;6.992;2023-08-31T14:12:30;4.00;;;3.57;;
3171;SDS011;1597;51.572;6.992;2023-08-31T14:14:56;4.03;;;3.10;;
3171;SDS011;1597;51.572;6.992;2023-08-31T14:17:23;6.93;;;4.70;;
3171;SDS011;1597;51.572;6.992;2023-08-31T14:19:49;6.90;;;4.77;;
3171;SDS011;1597;51.572;6.992;2023-08-31T14:22:15;3.97;;;3.57;;
3171;SDS011;1597;51.572;6.992;2023-08-31T14:24:41;5.60;;;5.10;;
3171;SDS011;1597;51.572;6.992;2023-08-31T14:27:07;7.70;;;5.30;;
3171;SDS011;1597;51.572;6.992;2023-08-31T14:29:33;8.90;;;5.17;;
3171;SDS011;1597;51.572;6.992;2023-08-31T14:32:00;8.20;;;6.47;;
3171;SDS011;1597;51.572;6.992;2023-08-31T14:34:26;5.77;;;5.27;;
3171;SDS011;1597;51.572;6.992;2023-08-31T14:36:52;7.07;;;6.30;;
3171;SDS011;1597;51.572;6.992;2023-08-31T14:39:22;9.77;;;6.60;;
3171;SDS011;1597;51.572;6.992;2023-08-31T14:41:54;9.00;;;6.10;;
3171;SDS011;1597;51.572;6.992;2023-08-31T14:44:21;8.57;;;7.70;;
3171;SDS011;1597;51.572;6.992;2023-08-31T14:46:47;11.57;;;9.40;;
3171;SDS011;1597;51.572;6.992;2023-08-31T14:49:13;9.17;;;7.83;;
3171;SDS011;1597;51.572;6.992;2023-08-31T14:51:39;7.90;;;7.20;;
3171;SDS011;1597;51.572;6.992;2023-08-31T14:54:05;7.17;;;6.47;;
3171;SDS011;1597;51.572;6.992;2023-08-31T14:56:31;9.63;;;8.73;;
3171;SDS011;1597;51.572;6.992;2023-08-31T14:58:57;11.57;;;7.60;;
3171;SDS011;1597;51.572;6.992;2023-08-31T15:01:23;8.00;;;7.30;;
3171;SDS011;1597;51.572;6.992;2023-08-31T15:03:50;8.43;;;7.73;;
3171;SDS011;1597;51.572;6.992;2023-08-31T15:06:15;7.80;;;7.10;;
3171;SDS011;1597;51.572;6.992;2023-08-31T15:08:41;10.70;;;7.40;;
3171;SDS011;1597;51.572;6.992;2023-08-31T15:11:08;6.30;;;5.80;;
3171;SDS011;1597;51.572;6.992;2023-08-31T15:13:34;6.70;;;6.20;;
3171;SDS011;1597;51.572;6.992;2023-08-31T15:16:00;10.23;;;8.97;;
3171;SDS011;1597;51.572;6.992;2023-08-31T15:18:26;10.27;;;8.17;;
3171;SDS011;1597;51.572;6.992;2023-08-31T15:20:53;7.70;;;7.00;;
3171;SDS011;1597;51.572;6.992;2023-08-31T15:23:19;7.93;;;6.10;;